createdAt,value
2023-01-17T00:01:08.308Z,93242.16
2023-01-17T00:03:35.930Z,93236.94
2023-01-17T00:06:04.349Z,93243.63
2023-01-17T00:08:30.786Z,93241.72
2023-01-17T00:10:57.429Z,93237.91
2023-01-17T00:13:23.966Z,93236.66
2023-01-17T00:15:50.518Z,93245.09
2023-01-17T00:18:16.996Z,93245.06
2023-01-17T00:20:43.454Z,93235.88
2023-01-17T00:23:22.395Z,93234.63
2023-01-17T00:25:48.982Z,93227.97
2023-01-17T00:28:15.796Z,93222.53
2023-01-17T00:30:42.315Z,93214.75
2023-01-17T00:33:08.833Z,93209.66
2023-01-17T00:35:35.432Z,93205.31
2023-01-17T00:38:03.231Z,93204.56
2023-01-17T00:40:31.059Z,93199.41
2023-01-17T00:42:57.531Z,93194.63
2023-01-17T00:45:24.124Z,93191.31
2023-01-17T00:47:52.677Z,93182.34
2023-01-17T00:50:19.592Z,93174.84
2023-01-17T00:52:46.051Z,93166.38
2023-01-17T00:55:12.586Z,93153.41
2023-01-17T00:57:39.150Z,93145.91
2023-01-17T01:00:06.359Z,93140.75
2023-01-17T01:02:33.937Z,93122.16
2023-01-17T01:05:00.854Z,93136.00
2023-01-17T01:07:27.303Z,93136.44
2023-01-17T01:09:53.785Z,93132.34
2023-01-17T01:12:20.248Z,93131.16
2023-01-17T01:14:46.719Z,93122.81
2023-01-17T01:17:13.296Z,93121.06
2023-01-17T01:19:39.770Z,93112.59
2023-01-17T01:24:50.315Z,93108.03
2023-01-17T01:27:16.855Z,93099.47
2023-01-17T01:29:43.379Z,93101.59
2023-01-17T01:32:09.845Z,93093.22
2023-01-17T01:34:36.297Z,93089.78
2023-01-17T01:37:02.768Z,93087.25
2023-01-17T01:39:29.281Z,93090.25
2023-01-17T01:41:55.724Z,93089.69
2023-01-17T01:44:43.830Z,93089.50
2023-01-17T01:47:26.907Z,93090.56
2023-01-17T01:49:53.419Z,93091.97
2023-01-17T01:52:26.015Z,93095.97
2023-01-17T01:55:02.997Z,93086.38
2023-01-17T01:57:34.365Z,93097.41
2023-01-17T02:00:07.118Z,93101.19
2023-01-17T02:02:35.183Z,93088.53
2023-01-17T02:05:04.540Z,93086.50
2023-01-17T02:07:39.279Z,93077.53
2023-01-17T02:10:06.237Z,93077.53
2023-01-17T02:12:33.529Z,93072.13
2023-01-17T02:15:00.426Z,93071.72
2023-01-17T02:17:59.371Z,93061.50
2023-01-17T02:20:37.815Z,93043.81
2023-01-17T02:23:22.951Z,93045.44
2023-01-17T02:26:10.883Z,93034.38
2023-01-17T02:29:04.911Z,93022.16
2023-01-17T02:31:51.572Z,93024.56
2023-01-17T02:34:29.701Z,93012.94
2023-01-17T02:37:10.593Z,93008.13
2023-01-17T02:39:47.123Z,92993.00
2023-01-17T02:42:20.261Z,92993.63
2023-01-17T02:44:46.708Z,92996.44
2023-01-17T02:47:29.135Z,92978.78
2023-01-17T02:50:05.972Z,92978.78
2023-01-17T02:52:54.023Z,92973.97
2023-01-17T02:55:51.430Z,92977.56
2023-01-17T02:58:30.573Z,92949.50
2023-01-17T03:01:08.951Z,92947.03
2023-01-17T03:03:46.366Z,92950.25
2023-01-17T03:06:35.151Z,92944.63
2023-01-17T03:09:03.302Z,92940.03
2023-01-17T03:11:30.102Z,92934.25
2023-01-17T03:13:59.731Z,92937.00
2023-01-17T03:16:32.315Z,92929.03
2023-01-17T03:18:58.985Z,92913.78
2023-01-17T03:21:25.492Z,92913.78
2023-01-17T03:23:52.033Z,92912.78
2023-01-17T03:26:18.511Z,92907.78
2023-01-17T03:28:45.053Z,92900.16
2023-01-17T03:31:16.087Z,92885.72
2023-01-17T03:33:42.634Z,92891.75
2023-01-17T03:36:09.130Z,92881.13
2023-01-17T03:38:35.580Z,92871.69
2023-01-17T03:41:02.038Z,92872.69
2023-01-17T03:43:28.503Z,92856.06
2023-01-17T03:46:05.868Z,92860.78
2023-01-17T03:48:32.445Z,92860.63
2023-01-17T03:50:59.048Z,92847.69
2023-01-17T03:53:25.756Z,92849.00
2023-01-17T03:55:52.183Z,92846.34
2023-01-17T03:58:18.635Z,92844.03
2023-01-17T04:00:45.095Z,92845.09
2023-01-17T04:03:11.550Z,92840.72
2023-01-17T04:05:37.982Z,92842.75
2023-01-17T04:08:04.616Z,92833.19
2023-01-17T04:10:31.083Z,92834.00
2023-01-17T04:12:57.533Z,92834.22
2023-01-17T04:15:24.043Z,92832.59
2023-01-17T04:17:50.855Z,92832.00
2023-01-17T04:20:30.671Z,92828.59
2023-01-17T04:22:57.134Z,92833.41
2023-01-17T04:25:23.717Z,92823.56
2023-01-17T04:27:50.169Z,92831.56
2023-01-17T04:30:16.657Z,92820.75
2023-01-17T04:32:43.125Z,92826.75
2023-01-17T04:35:09.804Z,92815.53
2023-01-17T04:37:36.553Z,92801.88
2023-01-17T04:40:04.767Z,92805.50
2023-01-17T04:42:31.259Z,92799.50
2023-01-17T04:44:57.715Z,92795.53
2023-01-17T04:47:24.177Z,92791.78
2023-01-17T04:49:50.654Z,92782.91
2023-01-17T04:52:17.377Z,92770.63
2023-01-17T04:54:44.163Z,92768.91
2023-01-17T04:57:10.642Z,92755.97
2023-01-17T04:59:37.089Z,92754.84
2023-01-17T05:02:03.617Z,92750.53
2023-01-17T05:04:30.234Z,92753.38
2023-01-17T05:06:56.691Z,92757.00
2023-01-17T05:09:23.190Z,92760.22
2023-01-17T05:11:49.679Z,92763.63
2023-01-17T05:14:16.156Z,92757.41
2023-01-17T05:16:42.609Z,92757.81
2023-01-17T05:19:09.141Z,92750.63
2023-01-17T05:21:35.603Z,92754.63
2023-01-17T05:24:02.044Z,92750.03
2023-01-17T05:26:28.496Z,92740.41
2023-01-17T05:28:54.938Z,92744.63
2023-01-17T05:31:21.430Z,92736.19
2023-01-17T05:33:47.913Z,92731.38
2023-01-17T05:36:14.356Z,92727.75
2023-01-17T05:38:40.805Z,92719.34
2023-01-17T05:41:07.318Z,92718.13
2023-01-17T05:43:33.763Z,92706.13
2023-01-17T05:46:00.334Z,92694.13
2023-01-17T05:48:26.788Z,92689.50
2023-01-17T05:50:53.244Z,92683.31
2023-01-17T05:53:19.798Z,92698.13
2023-01-17T05:55:46.646Z,92700.53
2023-01-17T05:58:19.351Z,92694.13
2023-01-17T06:00:46.642Z,92701.09
2023-01-17T06:03:13.652Z,92692.22
2023-01-17T06:05:41.379Z,92697.44
2023-01-17T06:08:07.959Z,92690.75
2023-01-17T06:10:34.895Z,92689.50
2023-01-17T06:13:02.678Z,92681.78
2023-01-17T06:15:29.147Z,92681.34
2023-01-17T06:17:55.909Z,92683.69
2023-01-17T06:20:22.539Z,92684.09
2023-01-17T06:22:49.055Z,92681.03
2023-01-17T06:25:15.792Z,92680.78
2023-01-17T06:27:42.252Z,92677.91
2023-01-17T06:30:09.901Z,92673.53
2023-01-17T06:32:36.503Z,92664.38
2023-01-17T06:35:02.973Z,92664.19
2023-01-17T06:37:29.448Z,92662.63
2023-01-17T06:39:55.903Z,92661.75
2023-01-17T06:42:22.504Z,92657.06
2023-01-17T06:44:48.969Z,92647.47
2023-01-17T06:47:15.412Z,92648.28
2023-01-17T06:49:41.930Z,92647.47
2023-01-17T06:52:08.408Z,92636.28
2023-01-17T06:54:34.859Z,92640.25
2023-01-17T06:57:01.305Z,92642.59
2023-01-17T06:59:27.798Z,92641.78
2023-01-17T07:01:54.237Z,92637.34
2023-01-17T07:04:20.675Z,92634.06
2023-01-17T07:06:50.358Z,92631.97
2023-01-17T07:09:16.880Z,92637.53
2023-01-17T07:11:43.378Z,92630.25
2023-01-17T07:14:13.796Z,92622.00
2023-01-17T07:16:40.487Z,92609.59
2023-01-17T07:19:06.998Z,92612.06
2023-01-17T07:21:33.446Z,92596.66
2023-01-17T07:23:59.932Z,92588.28
2023-01-17T07:26:26.424Z,92583.09
2023-01-17T07:28:52.884Z,92581.09
2023-01-17T07:31:19.356Z,92584.56
2023-01-17T07:33:45.825Z,92596.53
2023-01-17T07:36:12.352Z,92605.16
2023-01-17T07:38:38.827Z,92603.59
2023-01-17T07:41:05.283Z,92601.56
2023-01-17T07:43:31.752Z,92600.00
2023-01-17T07:45:58.203Z,92596.38
2023-01-17T07:48:24.849Z,92597.53
2023-01-17T07:50:56.635Z,92602.38
2023-01-17T07:53:28.150Z,92604.72
2023-01-17T07:55:55.319Z,92602.25
2023-01-17T07:58:22.106Z,92612.22
2023-01-17T08:00:48.735Z,92606.59
2023-01-17T08:03:17.747Z,92610.47
2023-01-17T08:05:54.321Z,92607.59
2023-01-17T08:08:21.492Z,92605.94
2023-01-17T08:10:47.969Z,92614.75
2023-01-17T08:13:14.440Z,92603.50
2023-01-17T08:15:40.977Z,92604.25
2023-01-17T08:18:07.581Z,92611.41
2023-01-17T08:20:34.136Z,92607.00
2023-01-17T08:23:00.650Z,92603.56
2023-01-17T08:25:27.190Z,92603.41
2023-01-17T08:27:57.472Z,92598.63
2023-01-17T08:30:25.108Z,92607.78
2023-01-17T08:32:51.822Z,92597.72
2023-01-17T08:35:18.511Z,92585.72
2023-01-17T08:37:45.116Z,92583.69
2023-01-17T08:40:11.898Z,92592.91
2023-01-17T08:42:38.995Z,92581.28
2023-01-17T08:45:08.170Z,92578.25
2023-01-17T08:47:35.242Z,92578.06
2023-01-17T08:50:01.796Z,92570.81
2023-01-17T08:52:28.549Z,92571.25
2023-01-17T08:54:55.105Z,92572.94
2023-01-17T08:57:22.199Z,92573.03
2023-01-17T08:59:48.701Z,92574.69
2023-01-17T09:02:17.521Z,92568.97
2023-01-17T09:04:45.874Z,92571.75
2023-01-17T09:07:12.484Z,92572.00
2023-01-17T09:09:38.956Z,92565.81
2023-01-17T09:12:05.727Z,92559.41
2023-01-17T09:14:32.888Z,92544.44
2023-01-17T09:16:59.851Z,92542.47
2023-01-17T09:19:26.416Z,92539.16
2023-01-17T09:21:52.891Z,92530.56
2023-01-17T09:24:19.376Z,92530.66
2023-01-17T09:26:46.907Z,92545.09
2023-01-17T09:29:13.695Z,92534.66
2023-01-17T09:31:40.143Z,92540.22
2023-01-17T09:34:06.740Z,92538.81
2023-01-17T09:36:33.225Z,92542.13
2023-01-17T09:39:00.697Z,92536.13
2023-01-17T09:41:40.958Z,92545.78
2023-01-17T09:44:28.002Z,92541.72
2023-01-17T09:47:01.881Z,92529.38
2023-01-17T09:49:43.355Z,92530.91
2023-01-17T09:52:17.434Z,92525.88
2023-01-17T09:54:47.671Z,92520.47
2023-01-17T09:57:27.256Z,92523.72
2023-01-17T10:00:15.012Z,92516.38
2023-01-17T10:02:52.300Z,92520.47
2023-01-17T10:05:44.622Z,92501.38
2023-01-17T10:08:32.688Z,92490.38
2023-01-17T10:11:08.127Z,92485.75
2023-01-17T10:13:40.530Z,92496.22
2023-01-17T10:16:18.826Z,92493.63
2023-01-17T10:19:27.699Z,92486.31
2023-01-17T10:22:12.056Z,92488.78
2023-01-17T10:25:15.118Z,92486.38
2023-01-17T10:27:53.459Z,92480.66
2023-01-17T10:30:46.999Z,92478.75
2023-01-17T10:33:29.905Z,92476.13
2023-01-17T10:36:15.176Z,92477.06
2023-01-17T10:38:51.089Z,92467.63
2023-01-17T10:41:54.597Z,92471.22
2023-01-17T10:44:29.917Z,92462.75
2023-01-17T10:47:18.474Z,92459.31
2023-01-17T10:49:55.066Z,92459.63
2023-01-17T10:52:42.528Z,92463.22
2023-01-17T10:55:27.012Z,92458.19
2023-01-17T10:57:54.359Z,92449.66
2023-01-17T11:00:41.086Z,92451.09
2023-01-17T11:03:11.097Z,92451.75
2023-01-17T11:05:37.816Z,92452.59
2023-01-17T11:08:06.827Z,92447.72
2023-01-17T11:10:52.097Z,92444.94
2023-01-17T11:13:35.844Z,92447.81
2023-01-17T11:16:17.858Z,92441.31
2023-01-17T11:18:44.943Z,92434.50
2023-01-17T11:21:22.847Z,92438.78
2023-01-17T11:23:53.842Z,92440.44
2023-01-17T11:26:25.811Z,92429.94
2023-01-17T11:28:52.251Z,92433.56
2023-01-17T11:31:18.728Z,92439.19
2023-01-17T11:33:49.245Z,92440.19
2023-01-17T11:36:17.441Z,92427.56
2023-01-17T11:38:58.894Z,92433.56
2023-01-17T11:41:27.107Z,92437.28
2023-01-17T11:43:56.591Z,92435.69
2023-01-17T11:46:23.099Z,92441.38
2023-01-17T11:48:56.281Z,92428.25
2023-01-17T11:51:42.241Z,92425.72
2023-01-17T11:54:24.897Z,92426.91
2023-01-17T11:57:01.192Z,92434.94
2023-01-17T11:59:36.915Z,92435.09
2023-01-17T12:02:22.036Z,92442.13
2023-01-17T12:05:18.067Z,92443.81
2023-01-17T12:08:28.038Z,92451.66
2023-01-17T12:11:16.389Z,92450.38
2023-01-17T12:14:02.730Z,92443.78
2023-01-17T12:16:51.023Z,92453.78
2023-01-17T12:19:24.727Z,92451.31
2023-01-17T12:21:59.000Z,92442.59
2023-01-17T12:24:57.565Z,92442.13
2023-01-17T12:27:48.673Z,92431.28
2023-01-17T12:30:44.462Z,92432.88
2023-01-17T12:33:25.678Z,92436.91
2023-01-17T12:36:33.588Z,92430.06
2023-01-17T12:39:06.412Z,92433.31
2023-01-17T12:41:44.832Z,92422.56
2023-01-17T12:44:17.974Z,92421.69
2023-01-17T12:46:54.829Z,92422.94
2023-01-17T12:49:45.618Z,92429.97
2023-01-17T12:52:18.183Z,92425.78
2023-01-17T12:54:51.445Z,92427.31
2023-01-17T12:57:25.176Z,92426.59
2023-01-17T13:00:04.909Z,92427.28
2023-01-17T13:02:56.129Z,92429.06
2023-01-17T13:05:39.590Z,92435.97
2023-01-17T13:08:18.205Z,92436.75
2023-01-17T13:10:53.327Z,92440.66
2023-01-17T13:13:23.584Z,92451.59
2023-01-17T13:16:00.138Z,92446.72
2023-01-17T13:18:29.111Z,92449.59
2023-01-17T13:21:28.787Z,92459.25
2023-01-17T13:23:57.882Z,92446.19
2023-01-17T13:26:30.294Z,92446.13
2023-01-17T13:29:24.794Z,92440.72
2023-01-17T13:32:15.154Z,92471.69
2023-01-17T13:35:01.767Z,92484.88
2023-01-17T13:37:52.867Z,92490.09
2023-01-17T13:40:33.932Z,92478.97
2023-01-17T13:43:12.008Z,92503.41
2023-01-17T13:45:39.513Z,92492.56
2023-01-17T13:48:12.042Z,92503.38
2023-01-17T13:50:38.490Z,92495.69
2023-01-17T13:53:35.757Z,92494.03
2023-01-17T13:56:10.502Z,92496.78
2023-01-17T13:58:45.798Z,92498.41
2023-01-17T14:01:12.540Z,92486.41
2023-01-17T14:03:51.183Z,92484.31
2023-01-17T14:06:33.079Z,92474.16
2023-01-17T14:09:08.417Z,92457.44
2023-01-17T14:11:56.716Z,92466.53
2023-01-17T14:14:39.791Z,92475.47
2023-01-17T14:17:18.226Z,92478.66
2023-01-17T14:19:51.300Z,92486.63
2023-01-17T14:22:20.850Z,92482.88
2023-01-17T14:25:15.788Z,92486.69
2023-01-17T14:27:42.254Z,92496.38
2023-01-17T14:30:18.122Z,92499.41
2023-01-17T14:32:59.889Z,92491.97
2023-01-17T14:35:48.646Z,92495.94
2023-01-17T14:38:22.671Z,92501.97
2023-01-17T14:40:56.692Z,92494.19
2023-01-17T14:43:26.778Z,92487.59
2023-01-17T14:45:58.587Z,92485.16
2023-01-17T14:48:26.036Z,92481.50
2023-01-17T14:50:54.809Z,92476.81
2023-01-17T14:53:26.387Z,92473.69
2023-01-17T14:55:56.723Z,92480.72
2023-01-17T14:58:33.796Z,92475.97
2023-01-17T15:01:10.731Z,92473.69
2023-01-17T15:03:57.581Z,92468.47
2023-01-17T15:06:33.044Z,92474.53
2023-01-17T15:08:59.628Z,92491.53
2023-01-17T15:11:29.536Z,92488.91
2023-01-17T15:13:59.782Z,92504.47
2023-01-17T15:16:29.848Z,92510.69
2023-01-17T15:18:57.406Z,92500.16
2023-01-17T15:21:28.196Z,92506.94
2023-01-17T15:24:07.509Z,92510.25
2023-01-17T15:26:36.018Z,92511.53
2023-01-17T15:29:08.618Z,92514.66
2023-01-17T15:31:45.289Z,92524.06
2023-01-17T15:34:20.627Z,92536.75
2023-01-17T15:36:49.580Z,92530.41
2023-01-17T15:39:23.878Z,92534.16
2023-01-17T15:41:56.622Z,92546.59
2023-01-17T15:44:47.678Z,92549.41
2023-01-17T15:47:35.819Z,92541.38
2023-01-17T15:50:22.131Z,92541.34
2023-01-17T15:52:57.459Z,92539.88
2023-01-17T15:55:45.291Z,92536.34
2023-01-17T15:58:24.632Z,92540.78
2023-01-17T16:00:51.299Z,92535.69
2023-01-17T16:03:25.894Z,92535.53
2023-01-17T16:05:54.493Z,92539.88
2023-01-17T16:08:31.774Z,92537.41
2023-01-17T16:11:04.060Z,92530.22
2023-01-17T16:13:33.389Z,92529.19
2023-01-17T16:16:11.169Z,92533.59
2023-01-17T16:18:37.924Z,92532.78
2023-01-17T16:21:19.419Z,92539.13
2023-01-17T16:23:46.448Z,92543.06
2023-01-17T16:26:12.976Z,92544.66
2023-01-17T16:28:39.580Z,92541.47
2023-01-17T16:31:06.409Z,92553.06
2023-01-17T16:33:33.142Z,92562.25
2023-01-17T16:35:59.633Z,92564.50
2023-01-17T16:38:26.128Z,92557.47
2023-01-17T16:40:52.632Z,92553.00
2023-01-17T16:43:19.666Z,92549.34
2023-01-17T16:45:51.183Z,92549.56
2023-01-17T16:48:19.338Z,92544.56
2023-01-17T16:50:48.756Z,92542.66
2023-01-17T16:53:19.735Z,92535.69
2023-01-17T16:55:46.179Z,92531.38
2023-01-17T16:58:12.684Z,92543.09
2023-01-17T17:00:39.994Z,92539.97
2023-01-17T17:03:06.527Z,92537.72
2023-01-17T17:05:33.151Z,92536.53
2023-01-17T17:08:00.851Z,92532.75
2023-01-17T17:10:27.459Z,92530.97
2023-01-17T17:12:53.939Z,92537.44
2023-01-17T17:15:20.631Z,92542.75
2023-01-17T17:17:47.142Z,92544.34
2023-01-17T17:20:15.464Z,92532.59
2023-01-17T17:22:48.980Z,92543.94
2023-01-17T17:25:15.781Z,92552.84
2023-01-17T17:27:42.644Z,92551.88
2023-01-17T17:30:09.932Z,92554.25
2023-01-17T17:32:36.419Z,92563.72
2023-01-17T17:35:03.059Z,92568.88
2023-01-17T17:37:29.512Z,92576.25
2023-01-17T17:39:56.512Z,92581.84
2023-01-17T17:42:23.155Z,92578.00
2023-01-17T17:44:49.644Z,92584.78
2023-01-17T17:47:16.164Z,92585.16
2023-01-17T17:49:42.632Z,92597.13
2023-01-17T17:52:09.321Z,92599.53
2023-01-17T17:54:36.143Z,92610.41
2023-01-17T17:57:02.761Z,92604.84
2023-01-17T17:59:29.197Z,92602.97
2023-01-17T18:01:55.688Z,92609.47
2023-01-17T18:04:22.162Z,92608.66
2023-01-17T18:06:48.644Z,92612.72
2023-01-17T18:09:15.122Z,92619.28
2023-01-17T18:11:42.970Z,92618.91
2023-01-17T18:14:14.126Z,92627.31
2023-01-17T18:16:43.295Z,92622.91
2023-01-17T18:19:20.491Z,92629.44
2023-01-17T18:21:47.923Z,92636.03
2023-01-17T18:24:16.691Z,92634.06
2023-01-17T18:26:54.949Z,92644.16
2023-01-17T18:29:22.570Z,92638.28
2023-01-17T18:31:51.428Z,92641.44
2023-01-17T18:34:20.783Z,92638.28
2023-01-17T18:36:47.837Z,92637.31
2023-01-17T18:39:19.243Z,92634.00
2023-01-17T18:41:46.371Z,92645.31
2023-01-17T18:44:12.865Z,92638.84
2023-01-17T18:46:40.194Z,92640.69
2023-01-17T18:49:06.814Z,92639.13
2023-01-17T18:51:34.181Z,92650.31
2023-01-17T18:54:01.911Z,92642.31
2023-01-17T18:56:28.676Z,92645.19
2023-01-17T18:58:55.139Z,92650.81
2023-01-17T19:01:27.548Z,92637.28
2023-01-17T19:03:57.840Z,92635.72
2023-01-17T19:06:34.078Z,92637.09
2023-01-17T19:09:01.785Z,92631.50
2023-01-17T19:11:28.613Z,92628.16
2023-01-17T19:13:56.031Z,92624.41
2023-01-17T19:16:28.359Z,92626.16
2023-01-17T19:18:57.499Z,92634.56
2023-01-17T19:21:26.475Z,92635.09
2023-01-17T19:23:53.903Z,92636.78
2023-01-17T19:26:21.000Z,92633.09
2023-01-17T19:28:49.047Z,92630.31
2023-01-17T19:31:22.306Z,92631.84
2023-01-17T19:33:51.429Z,92634.66
2023-01-17T19:36:21.247Z,92638.00
2023-01-17T19:39:02.931Z,92639.59
2023-01-17T19:41:31.705Z,92644.13
2023-01-17T19:44:01.205Z,92650.03
2023-01-17T19:46:28.224Z,92649.34
2023-01-17T19:48:56.645Z,92657.00
2023-01-17T19:51:24.648Z,92652.63
2023-01-17T19:53:51.303Z,92653.81
2023-01-17T19:56:21.069Z,92654.69
2023-01-17T19:58:48.473Z,92658.16
2023-01-17T20:01:24.656Z,92650.38
2023-01-17T20:03:51.992Z,92653.56
2023-01-17T20:06:21.990Z,92655.91
2023-01-17T20:08:48.503Z,92651.16
2023-01-17T20:11:21.635Z,92659.53
2023-01-17T20:13:51.402Z,92669.47
2023-01-17T20:16:18.202Z,92670.16
2023-01-17T20:18:45.022Z,92674.53
2023-01-17T20:21:20.807Z,92674.66
2023-01-17T20:23:48.538Z,92674.84
2023-01-17T20:26:34.659Z,92672.56
2023-01-17T20:29:11.075Z,92664.94
2023-01-17T20:31:39.432Z,92673.25
2023-01-17T20:34:07.865Z,92690.91
2023-01-17T20:36:34.562Z,92693.66
2023-01-17T20:39:03.993Z,92685.56
2023-01-17T20:41:39.416Z,92694.50
2023-01-17T20:44:09.098Z,92693.31
2023-01-17T20:46:40.285Z,92693.19
2023-01-17T20:49:11.297Z,92692.72
2023-01-17T20:51:37.795Z,92688.09
2023-01-17T20:54:05.538Z,92687.22
2023-01-17T20:56:32.524Z,92687.16
2023-01-17T20:58:59.065Z,92686.09
2023-01-17T21:01:25.591Z,92688.06
2023-01-17T21:03:52.138Z,92694.72
2023-01-17T21:06:20.984Z,92692.41
2023-01-17T21:08:48.948Z,92696.22
2023-01-17T21:11:19.065Z,92691.34
2023-01-17T21:13:46.169Z,92685.97
2023-01-17T21:16:12.752Z,92681.97
2023-01-17T21:18:39.930Z,92691.47
2023-01-17T21:21:27.552Z,92718.41
2023-01-17T21:23:55.961Z,92724.06
2023-01-17T21:26:24.541Z,92732.19
2023-01-17T21:28:52.306Z,92735.59
2023-01-17T21:31:28.400Z,92755.84
2023-01-17T21:33:57.785Z,92754.25
2023-01-17T21:36:28.062Z,92757.44
2023-01-17T21:38:57.179Z,92765.06
2023-01-17T21:41:29.897Z,92750.19
2023-01-17T21:43:58.831Z,92760.59
2023-01-17T21:46:26.456Z,92756.22
2023-01-17T21:48:53.023Z,92771.00
2023-01-17T21:51:20.292Z,92772.47
2023-01-17T21:53:46.816Z,92761.22
2023-01-17T21:56:13.992Z,92763.13
2023-01-17T21:58:40.448Z,92770.34
2023-01-17T22:01:07.660Z,92779.63
2023-01-17T22:03:35.575Z,92776.34
2023-01-17T22:06:02.094Z,92776.81
2023-01-17T22:08:33.564Z,92782.44
2023-01-17T22:11:11.407Z,92787.69
2023-01-17T22:13:40.096Z,92786.00
2023-01-17T22:16:09.679Z,92790.63
2023-01-17T22:18:38.390Z,92794.44
2023-01-17T22:21:16.030Z,92794.28
2023-01-17T22:23:51.192Z,92802.38
2023-01-17T22:26:19.502Z,92801.97
2023-01-17T22:28:45.990Z,92796.91
2023-01-17T22:31:20.938Z,92807.88
2023-01-17T22:33:55.628Z,92803.50
2023-01-17T22:36:22.903Z,92817.94
2023-01-17T22:38:50.041Z,92812.53
2023-01-17T22:41:19.506Z,92813.28
2023-01-17T22:43:48.890Z,92813.09
2023-01-17T22:46:18.940Z,92820.66
2023-01-17T22:48:46.311Z,92830.13
2023-01-17T22:51:18.366Z,92818.56
2023-01-17T22:53:50.053Z,92824.19
2023-01-17T22:56:19.076Z,92820.19
2023-01-17T22:58:45.589Z,92818.25
2023-01-17T23:01:20.718Z,92806.41
2023-01-17T23:03:54.532Z,92818.13
2023-01-17T23:06:26.903Z,92818.59
2023-01-17T23:08:56.478Z,92818.88
2023-01-17T23:11:25.757Z,92812.16
2023-01-17T23:13:52.983Z,92821.13
2023-01-17T23:16:19.521Z,92815.97
2023-01-17T23:18:46.001Z,92817.81
2023-01-17T23:21:12.487Z,92816.09
2023-01-17T23:23:38.956Z,92814.66
2023-01-17T23:26:05.412Z,92815.06
2023-01-17T23:28:31.860Z,92825.47
2023-01-17T23:31:02.878Z,92824.78
2023-01-17T23:33:29.391Z,92827.19
2023-01-17T23:35:55.859Z,92829.97
2023-01-17T23:38:22.312Z,92839.09
2023-01-17T23:40:49.303Z,92843.25
2023-01-17T23:43:15.773Z,92852.53
2023-01-17T23:45:42.310Z,92850.03
2023-01-17T23:48:09.077Z,92855.53
2023-01-17T23:50:40.280Z,92874.81
2023-01-17T23:53:08.110Z,92859.44
2023-01-17T23:55:41.199Z,92866.84
2023-01-17T23:58:09.831Z,92860.94
